sensor_id;sensor_type;location;lat;lon;timestamp;P1;durP1;ratioP1;P2;durP2;ratioP2
61756;SDS011;57225;61.460;24.060;2022-09-13T00:02:38;3.60;;;1.95;;
61756;SDS011;57225;61.460;24.060;2022-09-13T00:05:22;2.47;;;1.80;;
61756;SDS011;57225;61.460;24.060;2022-09-13T00:08:07;3.60;;;2.00;;
61756;SDS011;57225;61.460;24.060;2022-09-13T00:10:52;3.47;;;2.20;;
61756;SDS011;57225;61.460;24.060;2022-09-13T00:13:36;2.45;;;1.90;;
61756;SDS011;57225;61.460;24.060;2022-09-13T00:16:22;2.58;;;1.80;;
61756;SDS011;57225;61.460;24.060;2022-09-13T00:19:08;2.65;;;1.92;;
61756;SDS011;57225;61.460;24.060;2022-09-13T00:21:53;2.30;;;1.70;;
61756;SDS011;57225;61.460;24.060;2022-09-13T00:24:37;2.40;;;1.90;;
61756;SDS011;57225;61.460;24.060;2022-09-13T00:27:22;4.35;;;2.00;;
61756;SDS011;57225;61.460;24.060;2022-09-13T00:30:06;2.80;;;2.15;;
61756;SDS011;57225;61.460;24.060;2022-09-13T00:32:51;4.10;;;2.22;;
61756;SDS011;57225;61.460;24.060;2022-09-13T00:35:36;3.78;;;2.10;;
61756;SDS011;57225;61.460;24.060;2022-09-13T00:38:21;3.17;;;1.80;;
61756;SDS011;57225;61.460;24.060;2022-09-13T00:41:06;2.38;;;1.70;;
61756;SDS011;57225;61.460;24.060;2022-09-13T00:43:55;3.45;;;1.98;;
61756;SDS011;57225;61.460;24.060;2022-09-13T00:46:43;2.88;;;2.00;;
61756;SDS011;57225;61.460;24.060;2022-09-13T00:49:35;3.33;;;1.88;;
61756;SDS011;57225;61.460;24.060;2022-09-13T00:52:23;2.58;;;1.65;;
61756;SDS011;57225;61.460;24.060;2022-09-13T00:58:04;2.35;;;1.60;;
61756;SDS011;57225;61.460;24.060;2022-09-13T01:00:52;2.33;;;1.70;;
61756;SDS011;57225;61.460;24.060;2022-09-13T01:03:41;3.47;;;2.15;;
61756;SDS011;57225;61.460;24.060;2022-09-13T01:06:28;4.13;;;2.50;;
61756;SDS011;57225;61.460;24.060;2022-09-13T01:12:13;3.03;;;2.30;;
61756;SDS011;57225;61.460;24.060;2022-09-13T01:15:19;3.80;;;1.98;;
61756;SDS011;57225;61.460;24.060;2022-09-13T01:18:04;3.95;;;1.73;;
61756;SDS011;57225;61.460;24.060;2022-09-13T01:30:11;4.18;;;2.15;;
61756;SDS011;57225;61.460;24.060;2022-09-13T01:54:49;2.70;;;1.70;;
61756;SDS011;57225;61.460;24.060;2022-09-13T01:57:52;2.45;;;1.95;;
61756;SDS011;57225;61.460;24.060;2022-09-13T02:00:40;3.70;;;2.05;;
61756;SDS011;57225;61.460;24.060;2022-09-13T02:04:19;3.28;;;2.20;;
61756;SDS011;57225;61.460;24.060;2022-09-13T02:06:51;3.28;;;2.30;;
61756;SDS011;57225;61.460;24.060;2022-09-13T02:09:45;3.13;;;2.17;;
61756;SDS011;57225;61.460;24.060;2022-09-13T02:12:35;2.80;;;2.10;;
61756;SDS011;57225;61.460;24.060;2022-09-13T02:15:24;4.07;;;2.28;;
61756;SDS011;57225;61.460;24.060;2022-09-13T02:18:30;4.20;;;2.33;;
61756;SDS011;57225;61.460;24.060;2022-09-13T02:21:29;3.92;;;2.65;;
61756;SDS011;57225;61.460;24.060;2022-09-13T02:24:23;4.57;;;2.53;;
61756;SDS011;57225;61.460;24.060;2022-09-13T02:27:20;4.40;;;2.20;;
61756;SDS011;57225;61.460;24.060;2022-09-13T02:30:09;4.78;;;2.40;;
61756;SDS011;57225;61.460;24.060;2022-09-13T02:32:56;3.50;;;2.30;;
61756;SDS011;57225;61.460;24.060;2022-09-13T02:36:09;2.67;;;2.00;;
61756;SDS011;57225;61.460;24.060;2022-09-13T02:38:59;3.53;;;2.28;;
61756;SDS011;57225;61.460;24.060;2022-09-13T02:44:50;4.30;;;2.13;;
61756;SDS011;57225;61.460;24.060;2022-09-13T02:53:33;4.35;;;2.30;;
61756;SDS011;57225;61.460;24.060;2022-09-13T02:59:46;3.72;;;2.50;;
61756;SDS011;57225;61.460;24.060;2022-09-13T03:02:32;3.65;;;2.53;;
61756;SDS011;57225;61.460;24.060;2022-09-13T03:05:19;3.78;;;2.60;;
61756;SDS011;57225;61.460;24.060;2022-09-13T03:08:04;5.20;;;2.58;;
61756;SDS011;57225;61.460;24.060;2022-09-13T03:10:53;4.22;;;2.97;;
61756;SDS011;57225;61.460;24.060;2022-09-13T03:17:10;5.70;;;3.17;;
61756;SDS011;57225;61.460;24.060;2022-09-13T03:32:05;8.93;;;4.30;;
61756;SDS011;57225;61.460;24.060;2022-09-13T03:43:43;6.78;;;3.72;;
61756;SDS011;57225;61.460;24.060;2022-09-13T03:46:34;6.10;;;4.05;;
61756;SDS011;57225;61.460;24.060;2022-09-13T03:49:21;7.38;;;4.45;;
61756;SDS011;57225;61.460;24.060;2022-09-13T03:52:08;7.03;;;4.43;;
61756;SDS011;57225;61.460;24.060;2022-09-13T03:54:53;10.88;;;4.38;;
61756;SDS011;57225;61.460;24.060;2022-09-13T03:57:38;7.55;;;3.85;;
61756;SDS011;57225;61.460;24.060;2022-09-13T04:00:22;5.97;;;3.15;;
61756;SDS011;57225;61.460;24.060;2022-09-13T04:03:07;9.68;;;4.10;;
61756;SDS011;57225;61.460;24.060;2022-09-13T04:05:52;8.30;;;3.92;;
61756;SDS011;57225;61.460;24.060;2022-09-13T04:08:37;10.25;;;3.80;;
61756;SDS011;57225;61.460;24.060;2022-09-13T04:11:21;6.57;;;3.85;;
61756;SDS011;57225;61.460;24.060;2022-09-13T04:14:06;6.55;;;3.55;;
61756;SDS011;57225;61.460;24.060;2022-09-13T04:16:51;5.30;;;3.40;;
61756;SDS011;57225;61.460;24.060;2022-09-13T04:19:40;5.22;;;3.53;;
61756;SDS011;57225;61.460;24.060;2022-09-13T04:22:27;4.60;;;3.15;;
61756;SDS011;57225;61.460;24.060;2022-09-13T04:25:12;7.85;;;2.92;;
61756;SDS011;57225;61.460;24.060;2022-09-13T04:27:56;6.78;;;2.80;;
61756;SDS011;57225;61.460;24.060;2022-09-13T04:30:43;2.92;;;2.35;;
61756;SDS011;57225;61.460;24.060;2022-09-13T04:33:27;9.20;;;2.72;;
61756;SDS011;57225;61.460;24.060;2022-09-13T04:36:12;5.47;;;2.60;;
61756;SDS011;57225;61.460;24.060;2022-09-13T04:38:56;7.28;;;2.42;;
61756;SDS011;57225;61.460;24.060;2022-09-13T04:41:43;10.07;;;2.38;;
61756;SDS011;57225;61.460;24.060;2022-09-13T04:44:30;9.27;;;2.47;;
61756;SDS011;57225;61.460;24.060;2022-09-13T04:47:15;6.30;;;2.35;;
61756;SDS011;57225;61.460;24.060;2022-09-13T04:49:59;3.15;;;2.00;;
61756;SDS011;57225;61.460;24.060;2022-09-13T04:52:44;3.38;;;2.20;;
61756;SDS011;57225;61.460;24.060;2022-09-13T04:55:28;4.00;;;1.80;;
61756;SDS011;57225;61.460;24.060;2022-09-13T04:58:12;3.80;;;2.10;;
61756;SDS011;57225;61.460;24.060;2022-09-13T05:01:01;6.65;;;2.28;;
61756;SDS011;57225;61.460;24.060;2022-09-13T05:03:47;2.78;;;1.88;;
61756;SDS011;57225;61.460;24.060;2022-09-13T05:06:33;3.70;;;1.67;;
61756;SDS011;57225;61.460;24.060;2022-09-13T05:09:18;7.80;;;1.80;;
61756;SDS011;57225;61.460;24.060;2022-09-13T05:12:03;3.97;;;1.55;;
61756;SDS011;57225;61.460;24.060;2022-09-13T05:14:47;5.55;;;1.80;;
61756;SDS011;57225;61.460;24.060;2022-09-13T05:17:32;2.83;;;1.60;;
61756;SDS011;57225;61.460;24.060;2022-09-13T05:20:16;6.47;;;1.90;;
61756;SDS011;57225;61.460;24.060;2022-09-13T05:23:01;2.33;;;1.50;;
61756;SDS011;57225;61.460;24.060;2022-09-13T05:25:51;1.65;;;1.30;;
61756;SDS011;57225;61.460;24.060;2022-09-13T05:28:36;4.07;;;1.48;;
61756;SDS011;57225;61.460;24.060;2022-09-13T05:31:22;2.90;;;1.58;;
61756;SDS011;57225;61.460;24.060;2022-09-13T05:34:09;5.85;;;1.70;;
61756;SDS011;57225;61.460;24.060;2022-09-13T05:36:56;2.80;;;1.42;;
61756;SDS011;57225;61.460;24.060;2022-09-13T05:39:41;2.63;;;1.45;;
61756;SDS011;57225;61.460;24.060;2022-09-13T05:42:25;4.82;;;1.40;;
61756;SDS011;57225;61.460;24.060;2022-09-13T05:45:10;4.22;;;1.48;;
61756;SDS011;57225;61.460;24.060;2022-09-13T05:47:54;4.20;;;1.50;;
61756;SDS011;57225;61.460;24.060;2022-09-13T05:50:38;2.58;;;1.40;;
61756;SDS011;57225;61.460;24.060;2022-09-13T05:53:23;2.72;;;1.42;;
61756;SDS011;57225;61.460;24.060;2022-09-13T05:56:08;2.63;;;1.35;;
61756;SDS011;57225;61.460;24.060;2022-09-13T05:58:54;3.35;;;1.20;;
61756;SDS011;57225;61.460;24.060;2022-09-13T06:01:39;2.85;;;1.20;;
61756;SDS011;57225;61.460;24.060;2022-09-13T06:04:23;1.38;;;1.20;;
61756;SDS011;57225;61.460;24.060;2022-09-13T06:07:09;4.03;;;1.30;;
61756;SDS011;57225;61.460;24.060;2022-09-13T06:09:55;3.13;;;1.10;;
61756;SDS011;57225;61.460;24.060;2022-09-13T06:12:40;5.00;;;1.50;;
61756;SDS011;57225;61.460;24.060;2022-09-13T06:15:24;4.55;;;1.27;;
61756;SDS011;57225;61.460;24.060;2022-09-13T06:18:09;2.25;;;1.25;;
61756;SDS011;57225;61.460;24.060;2022-09-13T06:21:03;2.10;;;1.15;;
61756;SDS011;57225;61.460;24.060;2022-09-13T06:24:00;1.60;;;1.38;;
61756;SDS011;57225;61.460;24.060;2022-09-13T06:26:44;3.65;;;1.23;;
61756;SDS011;57225;61.460;24.060;2022-09-13T06:29:29;4.93;;;1.73;;
61756;SDS011;57225;61.460;24.060;2022-09-13T06:32:13;3.25;;;1.30;;
61756;SDS011;57225;61.460;24.060;2022-09-13T06:34:58;4.05;;;1.23;;
61756;SDS011;57225;61.460;24.060;2022-09-13T06:37:43;3.35;;;1.15;;
61756;SDS011;57225;61.460;24.060;2022-09-13T06:40:27;5.78;;;1.20;;
61756;SDS011;57225;61.460;24.060;2022-09-13T06:43:11;1.73;;;1.30;;
61756;SDS011;57225;61.460;24.060;2022-09-13T06:46:02;2.92;;;1.35;;
61756;SDS011;57225;61.460;24.060;2022-09-13T06:48:48;1.65;;;1.10;;
61756;SDS011;57225;61.460;24.060;2022-09-13T06:51:34;3.35;;;1.20;;
61756;SDS011;57225;61.460;24.060;2022-09-13T06:54:18;1.92;;;1.30;;
61756;SDS011;57225;61.460;24.060;2022-09-13T06:57:03;8.05;;;1.50;;
61756;SDS011;57225;61.460;24.060;2022-09-13T06:59:47;3.90;;;1.20;;
61756;SDS011;57225;61.460;24.060;2022-09-13T07:02:32;1.80;;;1.15;;
61756;SDS011;57225;61.460;24.060;2022-09-13T07:05:16;4.20;;;1.30;;
61756;SDS011;57225;61.460;24.060;2022-09-13T07:08:03;2.50;;;1.25;;
61756;SDS011;57225;61.460;24.060;2022-09-13T07:10:48;2.55;;;1.10;;
61756;SDS011;57225;61.460;24.060;2022-09-13T07:13:32;5.00;;;1.73;;
61756;SDS011;57225;61.460;24.060;2022-09-13T07:16:17;2.70;;;1.27;;
61756;SDS011;57225;61.460;24.060;2022-09-13T07:19:03;3.70;;;1.38;;
61756;SDS011;57225;61.460;24.060;2022-09-13T07:21:49;10.25;;;1.40;;
61756;SDS011;57225;61.460;24.060;2022-09-13T07:24:34;3.70;;;1.20;;
61756;SDS011;57225;61.460;24.060;2022-09-13T07:27:18;5.75;;;1.27;;
61756;SDS011;57225;61.460;24.060;2022-09-13T07:30:03;2.38;;;1.10;;
61756;SDS011;57225;61.460;24.060;2022-09-13T07:32:47;4.55;;;1.42;;
61756;SDS011;57225;61.460;24.060;2022-09-13T07:35:32;3.88;;;1.42;;
61756;SDS011;57225;61.460;24.060;2022-09-13T07:38:16;3.95;;;1.50;;
61756;SDS011;57225;61.460;24.060;2022-09-13T07:41:01;2.17;;;1.15;;
61756;SDS011;57225;61.460;24.060;2022-09-13T07:43:49;1.92;;;0.93;;
61756;SDS011;57225;61.460;24.060;2022-09-13T07:46:35;3.47;;;1.40;;
61756;SDS011;57225;61.460;24.060;2022-09-13T07:49:22;8.07;;;2.17;;
61756;SDS011;57225;61.460;24.060;2022-09-13T07:52:06;4.00;;;1.23;;
61756;SDS011;57225;61.460;24.060;2022-09-13T07:54:51;2.47;;;1.10;;
61756;SDS011;57225;61.460;24.060;2022-09-13T07:57:35;2.90;;;1.08;;
61756;SDS011;57225;61.460;24.060;2022-09-13T08:00:20;4.45;;;1.10;;
61756;SDS011;57225;61.460;24.060;2022-09-13T08:03:06;3.35;;;1.20;;
61756;SDS011;57225;61.460;24.060;2022-09-13T08:05:51;2.70;;;1.17;;
61756;SDS011;57225;61.460;24.060;2022-09-13T08:08:36;3.80;;;1.23;;
61756;SDS011;57225;61.460;24.060;2022-09-13T08:11:24;1.98;;;1.00;;
61756;SDS011;57225;61.460;24.060;2022-09-13T08:14:13;1.90;;;1.05;;
61756;SDS011;57225;61.460;24.060;2022-09-13T08:16:59;9.20;;;1.20;;
61756;SDS011;57225;61.460;24.060;2022-09-13T08:19:44;6.18;;;1.30;;
61756;SDS011;57225;61.460;24.060;2022-09-13T08:22:29;1.95;;;1.15;;
61756;SDS011;57225;61.460;24.060;2022-09-13T08:25:13;2.53;;;1.08;;
61756;SDS011;57225;61.460;24.060;2022-09-13T08:27:58;4.03;;;1.33;;
61756;SDS011;57225;61.460;24.060;2022-09-13T08:30:43;5.88;;;1.45;;
61756;SDS011;57225;61.460;24.060;2022-09-13T08:33:27;2.45;;;1.23;;
61756;SDS011;57225;61.460;24.060;2022-09-13T08:36:12;8.20;;;1.35;;
61756;SDS011;57225;61.460;24.060;2022-09-13T08:38:57;4.88;;;1.10;;
61756;SDS011;57225;61.460;24.060;2022-09-13T08:44:41;1.80;;;1.20;;
61756;SDS011;57225;61.460;24.060;2022-09-13T08:53:30;2.63;;;1.20;;
61756;SDS011;57225;61.460;24.060;2022-09-13T08:56:28;4.80;;;1.30;;
61756;SDS011;57225;61.460;24.060;2022-09-13T09:05:42;4.38;;;1.30;;
61756;SDS011;57225;61.460;24.060;2022-09-13T09:08:36;2.30;;;1.50;;
61756;SDS011;57225;61.460;24.060;2022-09-13T09:14:42;7.13;;;1.50;;
61756;SDS011;57225;61.460;24.060;2022-09-13T09:17:56;3.35;;;1.40;;
61756;SDS011;57225;61.460;24.060;2022-09-13T09:20:43;5.80;;;1.27;;
61756;SDS011;57225;61.460;24.060;2022-09-13T09:23:40;2.15;;;1.30;;
61756;SDS011;57225;61.460;24.060;2022-09-13T09:26:36;2.72;;;1.30;;
61756;SDS011;57225;61.460;24.060;2022-09-13T09:29:25;4.50;;;1.25;;
61756;SDS011;57225;61.460;24.060;2022-09-13T09:35:43;2.42;;;1.40;;
61756;SDS011;57225;61.460;24.060;2022-09-13T09:38:37;2.33;;;1.23;;
61756;SDS011;57225;61.460;24.060;2022-09-13T09:41:30;3.58;;;1.10;;
61756;SDS011;57225;61.460;24.060;2022-09-13T09:44:20;2.95;;;1.40;;
61756;SDS011;57225;61.460;24.060;2022-09-13T09:47:09;2.78;;;1.20;;
61756;SDS011;57225;61.460;24.060;2022-09-13T09:56:00;2.10;;;1.27;;
61756;SDS011;57225;61.460;24.060;2022-09-13T09:58:49;2.70;;;1.20;;
61756;SDS011;57225;61.460;24.060;2022-09-13T10:01:36;2.83;;;1.10;;
61756;SDS011;57225;61.460;24.060;2022-09-13T10:04:21;2.60;;;1.10;;
61756;SDS011;57225;61.460;24.060;2022-09-13T10:07:17;3.75;;;1.50;;
61756;SDS011;57225;61.460;24.060;2022-09-13T10:10:25;3.28;;;1.67;;
61756;SDS011;57225;61.460;24.060;2022-09-13T10:13:19;3.15;;;1.40;;
61756;SDS011;57225;61.460;24.060;2022-09-13T10:16:20;3.08;;;1.33;;
61756;SDS011;57225;61.460;24.060;2022-09-13T10:19:42;3.00;;;1.42;;
61756;SDS011;57225;61.460;24.060;2022-09-13T10:22:20;3.33;;;1.23;;
61756;SDS011;57225;61.460;24.060;2022-09-13T10:25:22;3.70;;;1.23;;
61756;SDS011;57225;61.460;24.060;2022-09-13T10:28:15;3.25;;;1.10;;
61756;SDS011;57225;61.460;24.060;2022-09-13T10:31:06;3.13;;;1.25;;
61756;SDS011;57225;61.460;24.060;2022-09-13T10:34:40;1.95;;;1.17;;
61756;SDS011;57225;61.460;24.060;2022-09-13T10:37:25;6.78;;;1.50;;
61756;SDS011;57225;61.460;24.060;2022-09-13T10:43:02;2.60;;;1.10;;
61756;SDS011;57225;61.460;24.060;2022-09-13T10:45:55;4.72;;;1.13;;
61756;SDS011;57225;61.460;24.060;2022-09-13T10:48:45;2.30;;;1.50;;
61756;SDS011;57225;61.460;24.060;2022-09-13T10:51:38;2.88;;;1.10;;
61756;SDS011;57225;61.460;24.060;2022-09-13T10:54:23;3.33;;;1.40;;
61756;SDS011;57225;61.460;24.060;2022-09-13T10:57:24;3.65;;;1.35;;
61756;SDS011;57225;61.460;24.060;2022-09-13T11:00:15;2.22;;;1.17;;
61756;SDS011;57225;61.460;24.060;2022-09-13T11:06:16;1.80;;;1.40;;
61756;SDS011;57225;61.460;24.060;2022-09-13T11:18:48;2.17;;;1.35;;
61756;SDS011;57225;61.460;24.060;2022-09-13T11:27:59;3.67;;;1.50;;
61756;SDS011;57225;61.460;24.060;2022-09-13T11:31:01;1.60;;;1.30;;
61756;SDS011;57225;61.460;24.060;2022-09-13T11:37:04;3.75;;;1.48;;
61756;SDS011;57225;61.460;24.060;2022-09-13T11:55:27;3.17;;;1.60;;
61756;SDS011;57225;61.460;24.060;2022-09-13T11:58:27;1.92;;;1.30;;
61756;SDS011;57225;61.460;24.060;2022-09-13T12:01:16;2.07;;;1.37;;
61756;SDS011;57225;61.460;24.060;2022-09-13T12:04:08;2.33;;;1.13;;
61756;SDS011;57225;61.460;24.060;2022-09-13T12:07:04;2.20;;;1.08;;
61756;SDS011;57225;61.460;24.060;2022-09-13T12:09:59;5.70;;;1.48;;
61756;SDS011;57225;61.460;24.060;2022-09-13T12:12:57;1.48;;;1.10;;
61756;SDS011;57225;61.460;24.060;2022-09-13T12:15:45;2.40;;;1.40;;
61756;SDS011;57225;61.460;24.060;2022-09-13T12:18:48;4.25;;;1.30;;
61756;SDS011;57225;61.460;24.060;2022-09-13T12:21:46;2.72;;;1.13;;
61756;SDS011;57225;61.460;24.060;2022-09-13T12:24:41;1.35;;;1.00;;
61756;SDS011;57225;61.460;24.060;2022-09-13T12:30:41;4.53;;;1.05;;
61756;SDS011;57225;61.460;24.060;2022-09-13T12:33:31;4.55;;;1.60;;
61756;SDS011;57225;61.460;24.060;2022-09-13T12:49:35;2.38;;;1.30;;
61756;SDS011;57225;61.460;24.060;2022-09-13T12:52:12;2.45;;;1.23;;
61756;SDS011;57225;61.460;24.060;2022-09-13T12:58:13;2.17;;;1.30;;
61756;SDS011;57225;61.460;24.060;2022-09-13T13:01:15;3.42;;;1.27;;
61756;SDS011;57225;61.460;24.060;2022-09-13T13:06:59;1.75;;;1.10;;
61756;SDS011;57225;61.460;24.060;2022-09-13T13:09:47;2.00;;;1.20;;
61756;SDS011;57225;61.460;24.060;2022-09-13T13:12:37;5.25;;;1.40;;
61756;SDS011;57225;61.460;24.060;2022-09-13T13:21:35;5.25;;;1.10;;
61756;SDS011;57225;61.460;24.060;2022-09-13T13:33:24;3.65;;;1.35;;
61756;SDS011;57225;61.460;24.060;2022-09-13T13:36:21;1.52;;;0.95;;
61756;SDS011;57225;61.460;24.060;2022-09-13T13:45:20;1.60;;;1.08;;
61756;SDS011;57225;61.460;24.060;2022-09-13T13:48:09;1.48;;;1.17;;
61756;SDS011;57225;61.460;24.060;2022-09-13T13:54:03;1.70;;;1.17;;
61756;SDS011;57225;61.460;24.060;2022-09-13T13:57:24;5.70;;;1.13;;
61756;SDS011;57225;61.460;24.060;2022-09-13T14:00:30;3.13;;;0.98;;
61756;SDS011;57225;61.460;24.060;2022-09-13T14:06:13;1.88;;;1.23;;
61756;SDS011;57225;61.460;24.060;2022-09-13T14:12:31;1.80;;;1.00;;
61756;SDS011;57225;61.460;24.060;2022-09-13T14:18:12;2.38;;;1.20;;
61756;SDS011;57225;61.460;24.060;2022-09-13T14:21:27;4.40;;;1.20;;
61756;SDS011;57225;61.460;24.060;2022-09-13T14:24:21;3.15;;;1.50;;
61756;SDS011;57225;61.460;24.060;2022-09-13T14:27:09;3.45;;;1.20;;
61756;SDS011;57225;61.460;24.060;2022-09-13T14:30:02;1.85;;;1.08;;
61756;SDS011;57225;61.460;24.060;2022-09-13T14:32:58;2.53;;;1.15;;
61756;SDS011;57225;61.460;24.060;2022-09-13T14:35:55;2.97;;;1.25;;
61756;SDS011;57225;61.460;24.060;2022-09-13T14:38:46;3.65;;;1.35;;
61756;SDS011;57225;61.460;24.060;2022-09-13T14:41:33;4.25;;;1.00;;
61756;SDS011;57225;61.460;24.060;2022-09-13T14:44:22;2.90;;;1.30;;
61756;SDS011;57225;61.460;24.060;2022-09-13T14:49:59;8.27;;;1.70;;
61756;SDS011;57225;61.460;24.060;2022-09-13T14:52:55;4.35;;;1.58;;
61756;SDS011;57225;61.460;24.060;2022-09-13T14:55:54;1.70;;;1.20;;
61756;SDS011;57225;61.460;24.060;2022-09-13T14:58:53;3.22;;;1.30;;
61756;SDS011;57225;61.460;24.060;2022-09-13T15:01:42;4.57;;;1.15;;
61756;SDS011;57225;61.460;24.060;2022-09-13T15:04:27;6.05;;;1.80;;
61756;SDS011;57225;61.460;24.060;2022-09-13T15:07:17;2.85;;;1.55;;
61756;SDS011;57225;61.460;24.060;2022-09-13T15:13:06;3.38;;;1.65;;
61756;SDS011;57225;61.460;24.060;2022-09-13T15:15:53;5.43;;;2.00;;
61756;SDS011;57225;61.460;24.060;2022-09-13T15:18:37;3.97;;;1.95;;
61756;SDS011;57225;61.460;24.060;2022-09-13T15:21:24;6.68;;;1.98;;
61756;SDS011;57225;61.460;24.060;2022-09-13T15:24:17;3.83;;;1.67;;
61756;SDS011;57225;61.460;24.060;2022-09-13T15:27:06;5.95;;;2.70;;
61756;SDS011;57225;61.460;24.060;2022-09-13T15:30:04;4.65;;;2.30;;
61756;SDS011;57225;61.460;24.060;2022-09-13T15:32:49;3.95;;;2.17;;
61756;SDS011;57225;61.460;24.060;2022-09-13T15:38:33;4.35;;;1.95;;
61756;SDS011;57225;61.460;24.060;2022-09-13T15:41:18;2.72;;;1.80;;
61756;SDS011;57225;61.460;24.060;2022-09-13T15:44:04;3.92;;;1.98;;
61756;SDS011;57225;61.460;24.060;2022-09-13T15:49:39;5.07;;;2.00;;
61756;SDS011;57225;61.460;24.060;2022-09-13T15:52:29;5.32;;;2.00;;
61756;SDS011;57225;61.460;24.060;2022-09-13T15:55:13;3.13;;;2.10;;
61756;SDS011;57225;61.460;24.060;2022-09-13T15:57:58;2.83;;;1.90;;
61756;SDS011;57225;61.460;24.060;2022-09-13T16:00:42;7.40;;;2.22;;
61756;SDS011;57225;61.460;24.060;2022-09-13T16:03:27;5.38;;;2.15;;
61756;SDS011;57225;61.460;24.060;2022-09-13T16:06:13;3.38;;;2.17;;
61756;SDS011;57225;61.460;24.060;2022-09-13T16:08:58;3.28;;;1.90;;
61756;SDS011;57225;61.460;24.060;2022-09-13T16:11:43;9.57;;;2.53;;
61756;SDS011;57225;61.460;24.060;2022-09-13T16:14:28;4.55;;;2.45;;
61756;SDS011;57225;61.460;24.060;2022-09-13T16:17:30;9.45;;;2.13;;
61756;SDS011;57225;61.460;24.060;2022-09-13T16:20:15;4.60;;;2.15;;
61756;SDS011;57225;61.460;24.060;2022-09-13T16:23:00;4.93;;;2.10;;
61756;SDS011;57225;61.460;24.060;2022-09-13T16:25:44;2.90;;;1.90;;
61756;SDS011;57225;61.460;24.060;2022-09-13T16:28:30;4.63;;;2.33;;
61756;SDS011;57225;61.460;24.060;2022-09-13T16:31:15;2.75;;;2.00;;
61756;SDS011;57225;61.460;24.060;2022-09-13T16:33:59;4.35;;;2.10;;
61756;SDS011;57225;61.460;24.060;2022-09-13T16:36:44;3.28;;;2.22;;
61756;SDS011;57225;61.460;24.060;2022-09-13T16:39:28;5.68;;;2.42;;
61756;SDS011;57225;61.460;24.060;2022-09-13T16:42:13;3.75;;;2.05;;
61756;SDS011;57225;61.460;24.060;2022-09-13T16:45:00;7.38;;;2.20;;
61756;SDS011;57225;61.460;24.060;2022-09-13T16:47:44;6.13;;;2.20;;
61756;SDS011;57225;61.460;24.060;2022-09-13T16:50:28;8.40;;;2.58;;
61756;SDS011;57225;61.460;24.060;2022-09-13T16:53:13;6.18;;;2.45;;
61756;SDS011;57225;61.460;24.060;2022-09-13T16:56:04;5.35;;;2.50;;
61756;SDS011;57225;61.460;24.060;2022-09-13T16:58:50;15.25;;;2.72;;
61756;SDS011;57225;61.460;24.060;2022-09-13T17:01:35;3.10;;;2.30;;
61756;SDS011;57225;61.460;24.060;2022-09-13T17:04:20;6.10;;;2.50;;
61756;SDS011;57225;61.460;24.060;2022-09-13T17:07:04;4.28;;;2.53;;
61756;SDS011;57225;61.460;24.060;2022-09-13T17:09:50;3.60;;;2.17;;
61756;SDS011;57225;61.460;24.060;2022-09-13T17:12:35;4.93;;;2.22;;
61756;SDS011;57225;61.460;24.060;2022-09-13T17:15:19;9.25;;;2.30;;
61756;SDS011;57225;61.460;24.060;2022-09-13T17:18:03;7.40;;;2.33;;
61756;SDS011;57225;61.460;24.060;2022-09-13T17:20:48;5.43;;;2.17;;
61756;SDS011;57225;61.460;24.060;2022-09-13T17:23:33;3.45;;;2.25;;
61756;SDS011;57225;61.460;24.060;2022-09-13T17:26:17;6.25;;;2.70;;
61756;SDS011;57225;61.460;24.060;2022-09-13T17:29:02;4.47;;;2.40;;
61756;SDS011;57225;61.460;24.060;2022-09-13T17:31:46;4.63;;;2.53;;
61756;SDS011;57225;61.460;24.060;2022-09-13T17:34:31;4.57;;;2.30;;
61756;SDS011;57225;61.460;24.060;2022-09-13T17:37:17;5.63;;;2.30;;
61756;SDS011;57225;61.460;24.060;2022-09-13T17:40:01;3.47;;;2.33;;
61756;SDS011;57225;61.460;24.060;2022-09-13T17:42:46;4.18;;;2.53;;
61756;SDS011;57225;61.460;24.060;2022-09-13T17:45:32;7.75;;;2.80;;
61756;SDS011;57225;61.460;24.060;2022-09-13T17:48:19;4.13;;;2.47;;
61756;SDS011;57225;61.460;24.060;2022-09-13T17:51:04;7.38;;;2.50;;
61756;SDS011;57225;61.460;24.060;2022-09-13T17:53:51;6.30;;;2.72;;
61756;SDS011;57225;61.460;24.060;2022-09-13T17:56:39;12.25;;;3.35;;
61756;SDS011;57225;61.460;24.060;2022-09-13T17:59:26;13.30;;;2.90;;
61756;SDS011;57225;61.460;24.060;2022-09-13T18:02:10;7.25;;;3.05;;
61756;SDS011;57225;61.460;24.060;2022-09-13T18:04:55;6.47;;;3.05;;
61756;SDS011;57225;61.460;24.060;2022-09-13T18:07:39;4.55;;;2.92;;
61756;SDS011;57225;61.460;24.060;2022-09-13T18:10:24;7.57;;;2.70;;
61756;SDS011;57225;61.460;24.060;2022-09-13T18:13:08;6.53;;;3.10;;
61756;SDS011;57225;61.460;24.060;2022-09-13T18:16:12;7.63;;;2.95;;
61756;SDS011;57225;61.460;24.060;2022-09-13T18:18:59;6.75;;;2.92;;
61756;SDS011;57225;61.460;24.060;2022-09-13T18:21:44;6.43;;;3.42;;
61756;SDS011;57225;61.460;24.060;2022-09-13T18:24:28;7.90;;;3.25;;
61756;SDS011;57225;61.460;24.060;2022-09-13T18:27:12;11.60;;;3.17;;
61756;SDS011;57225;61.460;24.060;2022-09-13T18:29:58;6.65;;;3.13;;
61756;SDS011;57225;61.460;24.060;2022-09-13T18:32:44;5.60;;;3.00;;
61756;SDS011;57225;61.460;24.060;2022-09-13T18:35:28;5.95;;;3.42;;
61756;SDS011;57225;61.460;24.060;2022-09-13T18:38:13;6.10;;;3.58;;
61756;SDS011;57225;61.460;24.060;2022-09-13T18:40:58;3.63;;;3.03;;
61756;SDS011;57225;61.460;24.060;2022-09-13T18:43:44;5.75;;;3.30;;
61756;SDS011;57225;61.460;24.060;2022-09-13T18:46:31;8.20;;;3.35;;
61756;SDS011;57225;61.460;24.060;2022-09-13T18:49:17;5.85;;;3.25;;
61756;SDS011;57225;61.460;24.060;2022-09-13T18:52:03;8.45;;;3.10;;
61756;SDS011;57225;61.460;24.060;2022-09-13T18:54:47;4.82;;;3.33;;
61756;SDS011;57225;61.460;24.060;2022-09-13T18:57:31;5.15;;;3.13;;
61756;SDS011;57225;61.460;24.060;2022-09-13T19:00:16;3.60;;;2.83;;
61756;SDS011;57225;61.460;24.060;2022-09-13T19:03:00;4.25;;;2.88;;
61756;SDS011;57225;61.460;24.060;2022-09-13T19:05:44;4.55;;;2.70;;
61756;SDS011;57225;61.460;24.060;2022-09-13T19:08:29;6.20;;;2.97;;
61756;SDS011;57225;61.460;24.060;2022-09-13T19:11:14;5.32;;;2.90;;
61756;SDS011;57225;61.460;24.060;2022-09-13T19:13:59;8.07;;;3.20;;
61756;SDS011;57225;61.460;24.060;2022-09-13T19:16:43;6.82;;;3.85;;
61756;SDS011;57225;61.460;24.060;2022-09-13T19:19:28;5.43;;;3.15;;
61756;SDS011;57225;61.460;24.060;2022-09-13T19:22:14;3.92;;;2.95;;
61756;SDS011;57225;61.460;24.060;2022-09-13T19:24:58;7.30;;;3.60;;
61756;SDS011;57225;61.460;24.060;2022-09-13T19:27:42;3.80;;;2.70;;
61756;SDS011;57225;61.460;24.060;2022-09-13T19:30:26;4.88;;;2.90;;
61756;SDS011;57225;61.460;24.060;2022-09-13T19:33:11;7.18;;;2.85;;
61756;SDS011;57225;61.460;24.060;2022-09-13T19:35:59;4.47;;;2.58;;
61756;SDS011;57225;61.460;24.060;2022-09-13T19:38:44;6.53;;;3.25;;
61756;SDS011;57225;61.460;24.060;2022-09-13T19:41:29;3.35;;;2.63;;
61756;SDS011;57225;61.460;24.060;2022-09-13T19:44:13;6.07;;;2.65;;
61756;SDS011;57225;61.460;24.060;2022-09-13T19:46:59;5.65;;;3.00;;
61756;SDS011;57225;61.460;24.060;2022-09-13T19:49:43;7.93;;;3.00;;
61756;SDS011;57225;61.460;24.060;2022-09-13T19:52:28;8.75;;;2.78;;
61756;SDS011;57225;61.460;24.060;2022-09-13T19:55:12;6.82;;;2.95;;
61756;SDS011;57225;61.460;24.060;2022-09-13T19:57:56;4.00;;;2.55;;
61756;SDS011;57225;61.460;24.060;2022-09-13T20:00:41;2.92;;;2.30;;
61756;SDS011;57225;61.460;24.060;2022-09-13T20:03:26;6.38;;;2.90;;
61756;SDS011;57225;61.460;24.060;2022-09-13T20:06:10;3.70;;;2.13;;
61756;SDS011;57225;61.460;24.060;2022-09-13T20:08:59;4.03;;;2.20;;